Details for Ryanair at LIRA




Go Back


Latest METAR
Local Time

LIRA 241350Z 15003KT 130V190 9999 FEW025 BKN040 10/08 Q1005

24/02/2018, 15:00:20

Description
Results
Ryanair Logo
Number of Pilots based at LIRA
0 Pilots Based here
Number of Ryanair Flights Departed from LIRA
2 Flights Departed
Number of Ryanair Flights Arrived at LIRA
3 Flights Arrived
Number of Ryanair Schedules Departing from LIRA
102 Schedules
Number of Ryanair Schedules Arriving at LIRA
101 Schedules
Number of Ryanair Schedules Departing from LIRA availible today
43 Schedules Today
Number of Ryanair Schedules Arriving at LIRA availible today
43 Schedules Today
Average Landing Rate at LIRA
-184 fpm
Ryanair Average Landing Rate at LIRA
-153 fpm
Total Fuel Purchased at LIRA by Ryanair
15,565.93 kgs / 34,316.65 lbs

Pilots Based at LIRA


Pilot ID
Pilot Name
Pilot Rank
No. of Flights
No. of Flying Hours
There are no pilots assigned to this hub!   Will you be the first?
Content